createdAt,value
2019-03-29T00:00:11.907Z,-3.90
2019-03-29T00:01:08.659Z,-3.90
2019-03-29T00:01:45.079Z,-3.90
2019-03-29T00:02:21.229Z,-3.90
2019-03-29T00:02:57.187Z,-3.80
2019-03-29T00:03:33.214Z,-3.80
2019-03-29T00:04:09.540Z,-3.80
2019-03-29T00:04:46.058Z,-3.80
2019-03-29T00:05:22.434Z,-3.80
2019-03-29T00:05:58.726Z,-3.70
2019-03-29T00:06:34.745Z,-3.70
2019-03-29T00:07:10.994Z,-3.80
2019-03-29T00:07:47.374Z,-3.80
2019-03-29T00:08:23.673Z,-3.90
2019-03-29T00:08:59.850Z,-3.80
2019-03-29T00:09:36.145Z,-3.80
2019-03-29T00:10:12.575Z,-3.80
2019-03-29T00:10:48.878Z,-3.80
2019-03-29T00:11:25.281Z,-3.80
2019-03-29T00:12:01.952Z,-3.70
2019-03-29T00:12:38.172Z,-3.70
2019-03-29T00:13:14.772Z,-3.70
2019-03-29T00:13:51.218Z,-3.60
2019-03-29T00:14:27.583Z,-3.60
2019-03-29T00:15:03.984Z,-3.50
2019-03-29T00:15:40.170Z,-3.50
2019-03-29T00:16:16.363Z,-3.60
2019-03-29T00:16:52.675Z,-3.60
2019-03-29T00:17:28.997Z,-3.60
2019-03-29T00:18:05.363Z,-3.60
2019-03-29T00:18:41.427Z,-3.70
2019-03-29T00:19:17.589Z,-3.70
2019-03-29T00:19:54.251Z,-3.80
2019-03-29T00:20:30.903Z,-3.70
2019-03-29T00:21:07.233Z,-3.80
2019-03-29T00:21:43.691Z,-3.70
2019-03-29T00:22:19.808Z,-3.70
2019-03-29T00:22:56.335Z,-3.70
2019-03-29T00:23:33.886Z,-3.70
2019-03-29T00:24:10.115Z,-3.70
2019-03-29T00:24:46.395Z,-3.70
2019-03-29T00:25:22.863Z,-3.70
2019-03-29T00:25:59.187Z,-3.70
2019-03-29T00:26:35.693Z,-3.70
2019-03-29T00:27:12.011Z,-3.70
2019-03-29T00:27:48.340Z,-3.80
2019-03-29T00:28:24.920Z,-3.80
2019-03-29T00:29:01.379Z,-3.80
2019-03-29T00:29:37.856Z,-3.80
2019-03-29T00:30:14.170Z,-3.80
2019-03-29T00:30:50.470Z,-3.90
2019-03-29T00:31:26.348Z,-3.90
2019-03-29T00:32:02.745Z,-3.80
2019-03-29T00:32:38.860Z,-3.80
2019-03-29T00:33:14.963Z,-3.80
2019-03-29T00:33:51.148Z,-3.80
2019-03-29T00:34:27.141Z,-3.70
2019-03-29T00:35:03.481Z,-3.80
2019-03-29T00:35:39.650Z,-3.70
2019-03-29T00:36:15.788Z,-3.80
2019-03-29T00:36:52.047Z,-3.70
2019-03-29T00:37:28.337Z,-3.70
2019-03-29T00:38:04.615Z,-3.70
2019-03-29T00:38:40.815Z,-3.70
2019-03-29T00:39:17.044Z,-3.80
2019-03-29T00:39:56.126Z,-3.70
2019-03-29T00:40:32.534Z,-3.80
2019-03-29T00:41:09.293Z,-3.80
2019-03-29T00:41:45.632Z,-3.80
2019-03-29T00:42:21.566Z,-3.70
2019-03-29T00:42:57.937Z,-3.70
2019-03-29T00:43:34.845Z,-3.70
2019-03-29T00:44:11.072Z,-3.70
2019-03-29T00:44:47.238Z,-3.70
2019-03-29T00:45:23.289Z,-3.70
2019-03-29T00:45:59.572Z,-3.60
2019-03-29T00:46:35.880Z,-3.60
2019-03-29T00:47:12.000Z,-3.60
2019-03-29T00:47:48.139Z,-3.50
2019-03-29T00:48:24.236Z,-3.50
2019-03-29T00:49:00.345Z,-3.60
2019-03-29T00:49:36.351Z,-3.70
2019-03-29T00:50:12.529Z,-3.60
2019-03-29T00:50:48.743Z,-3.60
2019-03-29T00:51:24.986Z,-3.60
2019-03-29T00:52:01.521Z,-3.60
2019-03-29T00:52:37.622Z,-3.60
2019-03-29T00:53:14.672Z,-3.60
2019-03-29T00:53:50.819Z,-3.60
2019-03-29T00:54:28.038Z,-3.60
2019-03-29T00:55:04.251Z,-3.60
2019-03-29T00:55:40.393Z,-3.60
2019-03-29T00:56:16.451Z,-3.60
2019-03-29T00:56:52.418Z,-3.70
2019-03-29T00:57:28.661Z,-3.70
2019-03-29T00:58:04.819Z,-3.70
2019-03-29T00:58:41.058Z,-3.70
2019-03-29T00:59:17.656Z,-3.80
2019-03-29T00:59:53.957Z,-3.80
2019-03-29T01:00:31.602Z,-3.80
2019-03-29T01:01:08.211Z,-3.80
2019-03-29T01:01:44.227Z,-3.80
2019-03-29T01:02:20.310Z,-3.80
2019-03-29T01:02:56.421Z,-3.80
2019-03-29T01:03:32.379Z,-3.80
2019-03-29T01:04:08.603Z,-3.80
2019-03-29T01:04:45.173Z,-3.80
2019-03-29T01:05:21.345Z,-3.80
2019-03-29T01:05:57.471Z,-3.70
2019-03-29T01:06:33.757Z,-3.70
2019-03-29T01:07:09.958Z,-3.70
2019-03-29T01:07:46.286Z,-3.70
2019-03-29T01:08:22.475Z,-3.70
2019-03-29T01:08:58.641Z,-3.80
2019-03-29T01:09:34.877Z,-3.80
2019-03-29T01:10:11.510Z,-3.80
2019-03-29T01:10:48.186Z,-3.90
2019-03-29T01:11:24.905Z,-3.90
2019-03-29T01:12:01.225Z,-3.90
2019-03-29T01:12:37.265Z,-4.00
2019-03-29T01:13:13.426Z,-4.00
2019-03-29T01:13:50.255Z,-3.90
2019-03-29T01:14:27.511Z,-3.90
2019-03-29T01:15:03.757Z,-3.90
2019-03-29T01:15:39.952Z,-3.90
2019-03-29T01:16:16.189Z,-3.90
2019-03-29T01:16:52.217Z,-3.80
2019-03-29T01:17:28.348Z,-3.80
2019-03-29T01:18:07.798Z,-3.80
2019-03-29T01:18:43.960Z,-3.80
2019-03-29T01:19:20.195Z,-3.90
2019-03-29T01:19:56.329Z,-3.90
2019-03-29T01:20:32.618Z,-3.90
2019-03-29T01:21:09.263Z,-3.90
2019-03-29T01:21:45.388Z,-4.00
2019-03-29T01:22:21.578Z,-4.00
2019-03-29T01:22:57.988Z,-4.10
2019-03-29T01:23:34.492Z,-4.10
2019-03-29T01:24:11.017Z,-4.10
2019-03-29T01:24:47.200Z,-4.10
2019-03-29T01:25:23.311Z,-4.20
2019-03-29T01:26:00.956Z,-4.20
2019-03-29T01:26:37.274Z,-4.20
2019-03-29T01:27:13.285Z,-4.20
2019-03-29T01:27:49.458Z,-4.30
2019-03-29T01:28:26.311Z,-4.30
2019-03-29T01:29:02.657Z,-4.30
2019-03-29T01:29:38.601Z,-4.20
2019-03-29T01:30:16.033Z,-4.20
2019-03-29T01:30:52.422Z,-4.20
2019-03-29T01:31:28.433Z,-4.20
2019-03-29T01:32:04.850Z,-4.10
2019-03-29T01:32:41.058Z,-4.10
2019-03-29T01:33:17.274Z,-4.10
2019-03-29T01:33:53.367Z,-4.10
2019-03-29T01:34:30.061Z,-4.10
2019-03-29T01:35:06.347Z,-4.10
2019-03-29T01:35:42.456Z,-4.10
2019-03-29T01:36:18.682Z,-4.10
2019-03-29T01:36:55.062Z,-4.10
2019-03-29T01:37:31.322Z,-4.10
2019-03-29T01:38:20.742Z,-4.10
2019-03-29T01:38:45.339Z,-4.20
2019-03-29T01:39:21.478Z,-4.20
2019-03-29T01:39:57.607Z,-4.10
2019-03-29T01:40:35.073Z,-4.10
2019-03-29T01:41:11.338Z,-4.10
2019-03-29T01:41:47.448Z,-4.00
2019-03-29T01:42:24.249Z,-4.00
2019-03-29T01:43:00.261Z,-4.00
2019-03-29T01:43:36.307Z,-4.00
2019-03-29T01:44:12.401Z,-4.00
2019-03-29T01:44:48.504Z,-4.00
2019-03-29T01:45:24.688Z,-4.00
2019-03-29T01:46:00.908Z,-4.00
2019-03-29T01:46:38.099Z,-4.00
2019-03-29T01:47:14.548Z,-4.00
2019-03-29T01:47:50.595Z,-4.00
2019-03-29T01:48:26.726Z,-3.90
2019-03-29T01:49:02.927Z,-3.90
2019-03-29T01:49:39.226Z,-3.90
2019-03-29T01:50:15.697Z,-3.90
2019-03-29T01:50:51.807Z,-3.90
2019-03-29T01:51:27.938Z,-3.90
2019-03-29T01:52:04.551Z,-3.80
2019-03-29T01:52:40.575Z,-3.80
2019-03-29T01:53:16.948Z,-3.70
2019-03-29T01:53:53.056Z,-3.70
2019-03-29T01:54:29.062Z,-3.70
2019-03-29T01:55:05.308Z,-3.60
2019-03-29T01:55:41.619Z,-3.60
2019-03-29T01:56:17.812Z,-3.50
2019-03-29T01:56:54.179Z,-3.50
2019-03-29T01:57:30.425Z,-3.50
2019-03-29T01:58:06.498Z,-3.40
2019-03-29T01:58:42.469Z,-3.40
2019-03-29T01:59:18.440Z,-3.30
2019-03-29T01:59:55.192Z,-3.30
2019-03-29T02:00:36.040Z,-3.30
2019-03-29T02:01:12.600Z,-3.30
2019-03-29T02:01:48.735Z,-3.30
2019-03-29T02:02:24.789Z,-3.20
2019-03-29T02:03:01.039Z,-3.20
2019-03-29T02:03:37.540Z,-3.20
2019-03-29T02:04:13.662Z,-3.20
2019-03-29T02:04:49.850Z,-3.20
2019-03-29T02:05:26.159Z,-3.20
2019-03-29T02:06:02.110Z,-3.30
2019-03-29T02:06:38.264Z,-3.20
2019-03-29T02:07:14.372Z,-3.20
2019-03-29T02:07:50.405Z,-3.20
2019-03-29T02:08:35.727Z,-3.20
2019-03-29T02:09:05.126Z,-3.20
2019-03-29T02:09:41.731Z,-3.20
2019-03-29T02:10:18.299Z,-3.20
2019-03-29T02:10:54.669Z,-3.10
2019-03-29T02:11:30.889Z,-3.10
2019-03-29T02:12:07.356Z,-3.10
2019-03-29T02:12:43.383Z,-3.10
2019-03-29T02:13:19.595Z,-3.00
2019-03-29T02:13:55.563Z,-3.00
2019-03-29T02:14:31.626Z,-3.00
2019-03-29T02:15:09.195Z,-2.90
2019-03-29T02:15:45.248Z,-2.90
2019-03-29T02:16:21.531Z,-2.90
2019-03-29T02:16:57.642Z,-2.80
2019-03-29T02:17:33.665Z,-2.80
2019-03-29T02:18:09.963Z,-2.80
2019-03-29T02:18:46.275Z,-2.90
2019-03-29T02:19:22.338Z,-2.90
2019-03-29T02:19:58.671Z,-2.90
2019-03-29T02:20:34.823Z,-2.90
2019-03-29T02:21:10.987Z,-3.00
2019-03-29T02:21:47.034Z,-2.90
2019-03-29T02:22:22.942Z,-2.90
2019-03-29T02:22:59.200Z,-2.90
2019-03-29T02:23:35.785Z,-2.90
2019-03-29T02:24:11.924Z,-3.00
2019-03-29T02:24:48.099Z,-3.00
2019-03-29T02:25:24.237Z,-3.00
2019-03-29T02:26:00.529Z,-3.00
2019-03-29T02:26:36.744Z,-3.00
2019-03-29T02:27:12.963Z,-3.00
2019-03-29T02:27:49.085Z,-3.00
2019-03-29T02:28:25.104Z,-2.90
2019-03-29T02:29:01.423Z,-3.00
2019-03-29T02:29:37.662Z,-3.00
2019-03-29T02:30:14.273Z,-3.00
2019-03-29T02:30:50.438Z,-3.00
2019-03-29T02:31:28.826Z,-3.00
2019-03-29T02:32:04.480Z,-3.00
2019-03-29T02:32:40.883Z,-3.00
2019-03-29T02:33:17.180Z,-2.90
2019-03-29T02:33:53.268Z,-2.90
2019-03-29T02:34:29.413Z,-2.90
2019-03-29T02:35:05.926Z,-2.90
2019-03-29T02:35:42.098Z,-2.90
2019-03-29T02:36:18.149Z,-2.90
2019-03-29T02:36:54.409Z,-2.90
2019-03-29T02:37:30.713Z,-2.90
2019-03-29T02:38:06.909Z,-3.00
2019-03-29T02:38:55.325Z,-3.00
2019-03-29T02:39:21.463Z,-3.10
2019-03-29T02:39:57.620Z,-3.10
2019-03-29T02:40:33.795Z,-3.10
2019-03-29T02:41:10.018Z,-3.10
2019-03-29T02:41:46.854Z,-3.20
2019-03-29T02:42:23.139Z,-3.20
2019-03-29T02:42:59.373Z,-3.20
2019-03-29T02:43:35.724Z,-3.30
2019-03-29T02:44:11.901Z,-3.30
2019-03-29T02:44:48.088Z,-3.30
2019-03-29T02:45:24.471Z,-3.20
2019-03-29T02:46:00.641Z,-3.20
2019-03-29T02:46:36.929Z,-3.20
2019-03-29T02:47:12.995Z,-3.10
2019-03-29T02:47:49.236Z,-3.10
2019-03-29T02:48:25.280Z,-3.00
2019-03-29T02:49:01.573Z,-3.00
2019-03-29T02:49:37.913Z,-3.00
2019-03-29T02:50:14.331Z,-3.00
2019-03-29T02:50:50.557Z,-3.00
2019-03-29T02:51:26.839Z,-3.00
2019-03-29T02:52:03.071Z,-2.90
2019-03-29T02:52:39.238Z,-2.90
2019-03-29T02:53:15.413Z,-2.90
2019-03-29T02:53:51.466Z,-2.90
2019-03-29T02:54:27.950Z,-2.90
2019-03-29T02:55:04.050Z,-3.00
2019-03-29T02:55:40.300Z,-2.90
2019-03-29T02:56:16.488Z,-3.00
2019-03-29T02:56:52.799Z,-3.00
2019-03-29T02:57:28.829Z,-3.00
2019-03-29T02:58:05.083Z,-3.00
2019-03-29T02:58:41.411Z,-3.00
2019-03-29T02:59:17.603Z,-3.00
2019-03-29T02:59:53.726Z,-3.00
2019-03-29T03:00:30.238Z,-2.90
2019-03-29T03:01:06.541Z,-2.90
2019-03-29T03:01:42.853Z,-2.90
2019-03-29T03:02:19.128Z,-2.90
2019-03-29T03:02:55.342Z,-2.90
2019-03-29T03:03:31.628Z,-2.90
2019-03-29T03:04:07.781Z,-2.90
2019-03-29T03:04:43.967Z,-2.90
2019-03-29T03:05:20.079Z,-2.90
2019-03-29T03:05:56.248Z,-3.00
2019-03-29T03:06:32.511Z,-3.00
2019-03-29T03:07:08.617Z,-3.00
2019-03-29T03:07:44.667Z,-2.90
2019-03-29T03:08:20.665Z,-2.90
2019-03-29T03:09:12.162Z,-2.90
2019-03-29T03:09:34.620Z,-2.80
2019-03-29T03:10:13.025Z,-2.80
2019-03-29T03:10:49.269Z,-2.70
2019-03-29T03:11:25.428Z,-2.70
2019-03-29T03:12:02.148Z,-2.60
2019-03-29T03:12:38.634Z,-2.60
2019-03-29T03:13:14.995Z,-2.50
2019-03-29T03:13:51.355Z,-2.50
2019-03-29T03:14:27.665Z,-2.50
2019-03-29T03:15:03.767Z,-2.50
2019-03-29T03:15:40.061Z,-2.50
2019-03-29T03:16:16.557Z,-2.40
2019-03-29T03:16:52.733Z,-2.40
2019-03-29T03:17:29.119Z,-2.40
2019-03-29T03:18:05.455Z,-2.40
2019-03-29T03:18:42.100Z,-2.40
2019-03-29T03:19:18.450Z,-2.30
2019-03-29T03:19:54.592Z,-2.30
2019-03-29T03:20:30.832Z,-2.30
2019-03-29T03:22:03.458Z,-2.30
2019-03-29T03:22:39.579Z,-2.30
2019-03-29T03:23:15.558Z,-2.20
2019-03-29T03:23:51.597Z,-2.10
2019-03-29T03:24:27.676Z,-2.20
2019-03-29T03:25:03.858Z,-2.10
2019-03-29T03:25:40.205Z,-2.10
2019-03-29T03:26:16.141Z,-2.10
2019-03-29T03:26:52.200Z,-2.10
2019-03-29T03:27:28.120Z,-2.10
2019-03-29T03:28:04.137Z,-2.10
2019-03-29T03:28:40.102Z,-2.00
2019-03-29T03:29:16.057Z,-2.00
2019-03-29T03:29:52.298Z,-2.00
2019-03-29T03:30:28.344Z,-2.10
2019-03-29T03:31:04.282Z,-2.10
2019-03-29T03:31:40.222Z,-2.10
2019-03-29T03:32:16.086Z,-2.10
2019-03-29T03:32:52.105Z,-2.10
2019-03-29T03:33:27.944Z,-2.00
2019-03-29T03:34:03.923Z,-2.00
2019-03-29T03:34:39.953Z,-2.00
2019-03-29T03:35:16.090Z,-2.00
2019-03-29T03:35:52.038Z,-2.10
2019-03-29T03:36:27.993Z,-2.10
2019-03-29T03:37:03.919Z,-2.20
2019-03-29T03:37:40.089Z,-2.20
2019-03-29T03:38:16.038Z,-2.20
2019-03-29T03:38:52.146Z,-2.20
2019-03-29T03:39:31.939Z,-2.20
2019-03-29T03:40:06.604Z,-2.20
2019-03-29T03:40:42.445Z,-2.20
2019-03-29T03:41:18.241Z,-2.20
2019-03-29T03:41:54.220Z,-2.20
2019-03-29T03:42:30.378Z,-2.20
2019-03-29T03:43:06.531Z,-2.20
2019-03-29T03:43:42.536Z,-2.30
2019-03-29T03:44:18.558Z,-2.30
2019-03-29T03:44:54.421Z,-2.30
2019-03-29T03:45:30.299Z,-2.20
2019-03-29T03:46:06.338Z,-2.20
2019-03-29T03:46:42.281Z,-2.20
2019-03-29T03:47:18.098Z,-2.20
2019-03-29T03:47:53.939Z,-2.20
2019-03-29T03:48:29.880Z,-2.20
2019-03-29T03:49:06.039Z,-2.20
2019-03-29T03:49:42.059Z,-2.20
2019-03-29T03:50:54.688Z,-2.20
2019-03-29T03:51:30.519Z,-2.20
2019-03-29T03:52:06.497Z,-2.20
2019-03-29T03:52:42.812Z,-2.20
2019-03-29T03:53:18.699Z,-2.20
2019-03-29T03:53:55.516Z,-2.30
2019-03-29T03:54:31.379Z,-2.30
2019-03-29T03:55:07.947Z,-2.30
2019-03-29T03:55:44.536Z,-2.40
2019-03-29T03:56:21.715Z,-2.30
2019-03-29T03:56:58.397Z,-2.30
2019-03-29T03:57:34.865Z,-2.30
2019-03-29T03:58:12.530Z,-2.30
2019-03-29T03:58:49.177Z,-2.30
2019-03-29T03:59:26.038Z,-2.30
2019-03-29T04:00:02.739Z,-2.30
2019-03-29T04:00:53.159Z,-2.30
2019-03-29T04:01:29.298Z,-2.30
2019-03-29T04:02:05.217Z,-2.20
2019-03-29T04:02:41.196Z,-2.20
2019-03-29T04:03:17.197Z,-2.20
2019-03-29T04:03:53.234Z,-2.20
2019-03-29T04:04:29.306Z,-2.10
2019-03-29T04:05:06.438Z,-2.10
2019-03-29T04:05:42.296Z,-2.10
2019-03-29T04:06:18.357Z,-2.10
2019-03-29T04:06:54.375Z,-2.20
2019-03-29T04:07:30.335Z,-2.20
2019-03-29T04:08:06.344Z,-2.20
2019-03-29T04:08:42.303Z,-2.20
2019-03-29T04:09:18.381Z,-2.10
2019-03-29T04:09:54.421Z,-2.10
2019-03-29T04:10:30.398Z,-2.10
2019-03-29T04:11:06.355Z,-2.20
2019-03-29T04:11:42.381Z,-2.20
2019-03-29T04:12:18.628Z,-2.20
2019-03-29T04:12:54.616Z,-2.20
2019-03-29T04:13:30.624Z,-2.20
2019-03-29T04:14:06.617Z,-2.20
2019-03-29T04:14:42.583Z,-2.20
2019-03-29T04:15:18.696Z,-2.20
2019-03-29T04:15:55.356Z,-2.20
2019-03-29T04:16:31.401Z,-2.10
2019-03-29T04:17:07.342Z,-2.10
2019-03-29T04:17:43.277Z,-2.20
2019-03-29T04:18:19.357Z,-2.30
2019-03-29T04:18:55.179Z,-2.30
2019-03-29T04:19:31.037Z,-2.30
2019-03-29T04:20:07.403Z,-2.30
2019-03-29T04:20:43.561Z,-2.30
2019-03-29T04:21:19.458Z,-2.30
2019-03-29T04:21:55.408Z,-2.30
2019-03-29T04:22:31.340Z,-2.30
2019-03-29T04:23:07.408Z,-2.30
2019-03-29T04:23:43.520Z,-2.30
2019-03-29T04:24:19.597Z,-2.30
2019-03-29T04:24:55.913Z,-2.30
2019-03-29T04:25:32.033Z,-2.30
2019-03-29T04:26:08.143Z,-2.30
2019-03-29T04:26:44.204Z,-2.30
2019-03-29T04:27:20.302Z,-2.20
2019-03-29T04:27:56.660Z,-2.30
2019-03-29T04:28:33.149Z,-2.30
2019-03-29T04:29:09.104Z,-2.30
2019-03-29T04:29:45.078Z,-2.30
2019-03-29T04:30:21.255Z,-2.20
2019-03-29T04:30:57.422Z,-2.20
2019-03-29T04:31:33.723Z,-2.20
2019-03-29T04:32:09.822Z,-2.20
2019-03-29T04:32:45.842Z,-2.20
2019-03-29T04:33:21.978Z,-2.10
2019-03-29T04:33:58.144Z,-2.10
2019-03-29T04:34:34.034Z,-2.10
2019-03-29T04:35:10.310Z,-2.10
2019-03-29T04:35:46.355Z,-2.10
2019-03-29T04:36:22.414Z,-2.10
2019-03-29T04:36:58.328Z,-2.10
2019-03-29T04:37:34.596Z,-2.10
2019-03-29T04:38:10.631Z,-2.10
2019-03-29T04:38:46.691Z,-2.00
2019-03-29T04:39:22.861Z,-2.00
2019-03-29T04:40:07.061Z,-2.00
2019-03-29T04:40:36.920Z,-2.00
2019-03-29T04:41:12.866Z,-1.90
2019-03-29T04:41:48.854Z,-1.90
2019-03-29T04:42:25.131Z,-1.90
2019-03-29T04:43:01.223Z,-1.90
2019-03-29T04:43:37.281Z,-1.90
2019-03-29T04:44:13.376Z,-1.80
2019-03-29T04:44:49.821Z,-1.80
2019-03-29T04:45:25.926Z,-1.80
2019-03-29T04:46:02.527Z,-1.70
2019-03-29T04:46:38.520Z,-1.70
2019-03-29T04:47:14.601Z,-1.70
2019-03-29T04:47:50.747Z,-1.60
2019-03-29T04:48:26.645Z,-1.70
2019-03-29T04:49:02.749Z,-1.60
2019-03-29T04:49:38.898Z,-1.60
2019-03-29T04:50:15.216Z,-1.60
2019-03-29T04:50:51.290Z,-1.50
2019-03-29T04:51:27.685Z,-1.50
2019-03-29T04:52:03.888Z,-1.50
2019-03-29T04:52:40.060Z,-1.50
2019-03-29T04:53:16.040Z,-1.50
2019-03-29T04:53:52.496Z,-1.50
2019-03-29T04:54:28.643Z,-1.50
2019-03-29T04:55:04.795Z,-1.50
2019-03-29T04:55:40.865Z,-1.40
2019-03-29T04:56:17.141Z,-1.40
2019-03-29T04:56:53.521Z,-1.40
2019-03-29T04:57:29.585Z,-1.40
2019-03-29T04:58:05.575Z,-1.40
2019-03-29T04:58:41.806Z,-1.40
2019-03-29T04:59:17.859Z,-1.30
2019-03-29T04:59:53.961Z,-1.30
2019-03-29T05:00:30.425Z,-1.30
2019-03-29T05:01:06.794Z,-1.30
2019-03-29T05:01:42.924Z,-1.30
2019-03-29T05:02:18.993Z,-1.30
2019-03-29T05:02:55.539Z,-1.30
2019-03-29T05:03:31.593Z,-1.30
2019-03-29T05:04:07.651Z,-1.30
2019-03-29T05:04:43.922Z,-1.30
2019-03-29T05:05:20.029Z,-1.30
2019-03-29T05:05:56.234Z,-1.30
2019-03-29T05:06:32.193Z,-1.30
2019-03-29T05:07:08.174Z,-1.20
2019-03-29T05:07:44.536Z,-1.20
2019-03-29T05:08:20.702Z,-1.20
2019-03-29T05:08:56.942Z,-1.20
2019-03-29T05:09:33.195Z,-1.10
2019-03-29T05:10:20.595Z,-1.10
2019-03-29T05:10:47.336Z,-1.10
2019-03-29T05:11:23.557Z,-1.10
2019-03-29T05:11:59.732Z,-1.10
2019-03-29T05:12:36.217Z,-1.10
2019-03-29T05:13:12.533Z,-1.10
2019-03-29T05:13:48.846Z,-1.10
2019-03-29T05:14:25.114Z,-1.10
2019-03-29T05:15:01.172Z,-1.10
2019-03-29T05:15:37.345Z,-1.00
2019-03-29T05:16:13.691Z,-1.00
2019-03-29T05:16:50.535Z,-1.00
2019-03-29T05:17:26.659Z,-1.00
2019-03-29T05:18:02.931Z,-1.00
2019-03-29T05:18:39.234Z,-0.90
2019-03-29T05:19:15.652Z,-1.00
2019-03-29T05:19:52.167Z,-0.90
2019-03-29T05:20:28.457Z,-0.90
2019-03-29T05:21:04.705Z,-0.90
2019-03-29T05:21:40.981Z,-0.90
2019-03-29T05:22:17.717Z,-0.90
2019-03-29T05:22:53.845Z,-0.90
2019-03-29T05:23:29.898Z,-0.90
2019-03-29T05:24:06.172Z,-0.90
2019-03-29T05:24:42.202Z,-0.80
2019-03-29T05:25:18.363Z,-0.80
2019-03-29T05:25:54.376Z,-0.80
2019-03-29T05:26:30.285Z,-0.80
2019-03-29T05:27:06.424Z,-0.80
2019-03-29T05:27:42.623Z,-0.80
2019-03-29T05:28:18.571Z,-0.80
2019-03-29T05:28:54.783Z,-0.80
2019-03-29T05:29:30.842Z,-0.70
2019-03-29T05:30:07.433Z,-0.70
2019-03-29T05:30:43.705Z,-0.80
2019-03-29T05:31:19.642Z,-0.80
2019-03-29T05:31:55.908Z,-0.70
2019-03-29T05:32:32.572Z,-0.70
2019-03-29T05:33:09.009Z,-0.70
2019-03-29T05:33:45.100Z,-0.70
2019-03-29T05:34:21.675Z,-0.70
2019-03-29T05:34:58.104Z,-0.60
2019-03-29T05:35:34.384Z,-0.60
2019-03-29T05:36:10.631Z,-0.60
2019-03-29T05:36:46.781Z,-0.60
2019-03-29T05:37:23.337Z,-0.60
2019-03-29T05:37:59.480Z,-0.60
2019-03-29T05:38:35.669Z,-0.60
2019-03-29T05:39:11.913Z,-0.60
2019-03-29T05:39:48.261Z,-0.60
2019-03-29T05:40:34.412Z,-0.60
2019-03-29T05:41:02.146Z,-0.50
2019-03-29T05:41:38.322Z,-0.50
2019-03-29T05:42:14.319Z,-0.50
2019-03-29T05:42:50.591Z,-0.50
2019-03-29T05:43:26.865Z,-0.50
2019-03-29T05:44:05.453Z,-0.50
2019-03-29T05:44:41.765Z,-0.50
2019-03-29T05:45:17.989Z,-0.50
2019-03-29T05:45:54.207Z,-0.50
2019-03-29T05:46:30.661Z,-0.50
2019-03-29T05:47:06.916Z,-0.40
2019-03-29T05:47:43.032Z,-0.40
2019-03-29T05:48:19.127Z,-0.40
2019-03-29T05:48:55.370Z,-0.30
2019-03-29T05:49:31.488Z,-0.30
2019-03-29T05:50:08.238Z,-0.30
2019-03-29T05:50:44.509Z,-0.30
2019-03-29T05:51:20.739Z,-0.30
2019-03-29T05:51:56.726Z,-0.30
2019-03-29T05:52:32.737Z,-0.20
2019-03-29T05:53:08.969Z,-0.20
2019-03-29T05:53:45.137Z,-0.20
2019-03-29T05:54:21.027Z,-0.20
2019-03-29T05:54:57.095Z,-0.10
2019-03-29T05:55:33.170Z,-0.10
2019-03-29T05:56:09.336Z,0.00
2019-03-29T05:56:45.501Z,-0.10
2019-03-29T05:57:21.732Z,0.00
2019-03-29T05:57:57.861Z,0.00
2019-03-29T05:58:33.833Z,0.00
2019-03-29T05:59:09.929Z,0.00
2019-03-29T05:59:45.851Z,0.10
2019-03-29T06:00:21.792Z,0.10
2019-03-29T06:00:57.548Z,0.10
2019-03-29T06:01:33.513Z,0.10
2019-03-29T06:02:09.467Z,0.20
2019-03-29T06:02:45.345Z,0.20
2019-03-29T06:03:21.311Z,0.20
2019-03-29T06:03:57.503Z,0.20
2019-03-29T06:04:33.598Z,0.30
2019-03-29T06:05:10.013Z,0.30
2019-03-29T06:05:46.408Z,0.30
2019-03-29T06:06:22.589Z,0.30
2019-03-29T06:06:59.070Z,0.40
2019-03-29T06:07:35.358Z,0.40
2019-03-29T06:08:11.692Z,0.40
2019-03-29T06:08:47.875Z,0.40
2019-03-29T06:09:24.012Z,0.50
2019-03-29T06:10:00.529Z,0.50
2019-03-29T06:10:48.409Z,0.50
2019-03-29T06:11:15.097Z,0.50
2019-03-29T06:11:51.238Z,0.50
2019-03-29T06:12:27.641Z,0.50
2019-03-29T06:13:03.808Z,0.50
2019-03-29T06:13:39.869Z,0.60
2019-03-29T06:14:16.096Z,0.60
2019-03-29T06:14:52.327Z,0.60
2019-03-29T06:15:28.754Z,0.60
2019-03-29T06:16:06.270Z,0.70
2019-03-29T06:16:42.473Z,0.70
2019-03-29T06:17:18.792Z,0.60
2019-03-29T06:17:55.559Z,0.70
2019-03-29T06:18:31.705Z,0.70
2019-03-29T06:19:07.839Z,0.70
2019-03-29T06:19:44.122Z,0.70
2019-03-29T06:20:20.559Z,0.70
2019-03-29T06:20:56.666Z,0.70
2019-03-29T06:21:32.835Z,0.70
2019-03-29T06:22:09.084Z,0.70
2019-03-29T06:22:45.438Z,0.70
2019-03-29T06:23:21.715Z,0.70
2019-03-29T06:23:57.848Z,0.70
2019-03-29T06:24:34.350Z,0.80
2019-03-29T06:25:10.600Z,0.80
2019-03-29T06:25:46.656Z,0.80
2019-03-29T06:26:22.969Z,0.80
2019-03-29T06:26:59.157Z,0.80
2019-03-29T06:27:35.438Z,0.80
2019-03-29T06:28:11.662Z,0.90
2019-03-29T06:28:47.786Z,0.90
2019-03-29T06:29:24.094Z,0.80
2019-03-29T06:30:00.359Z,0.80
2019-03-29T06:30:36.718Z,0.80
2019-03-29T06:31:13.339Z,0.80
2019-03-29T06:31:49.608Z,0.80
2019-03-29T06:32:25.793Z,0.80
2019-03-29T06:33:02.050Z,0.90
2019-03-29T06:33:38.251Z,0.90
2019-03-29T06:34:14.608Z,0.90
2019-03-29T06:34:50.925Z,1.00
2019-03-29T06:35:27.881Z,1.00
2019-03-29T06:36:06.431Z,1.00
2019-03-29T06:36:43.305Z,1.00
2019-03-29T06:37:20.311Z,1.00
2019-03-29T06:37:56.681Z,1.00
2019-03-29T06:38:35.038Z,1.00
2019-03-29T06:39:12.093Z,1.00
2019-03-29T06:39:48.809Z,1.10
2019-03-29T06:40:27.848Z,1.10
2019-03-29T06:41:04.015Z,1.10
2019-03-29T06:41:40.325Z,1.10
2019-03-29T06:42:16.398Z,1.10
2019-03-29T06:42:52.656Z,1.10
2019-03-29T06:43:28.889Z,1.20
2019-03-29T06:44:04.890Z,1.20
2019-03-29T06:44:44.100Z,1.20
2019-03-29T06:45:18.939Z,1.20
2019-03-29T06:45:55.010Z,1.30
2019-03-29T06:46:31.347Z,1.30
2019-03-29T06:47:07.629Z,1.30
2019-03-29T06:47:43.983Z,1.30
2019-03-29T06:48:20.539Z,1.30
2019-03-29T06:48:56.863Z,1.30
2019-03-29T06:49:33.182Z,1.40
2019-03-29T06:50:09.450Z,1.40
2019-03-29T06:50:45.662Z,1.40
2019-03-29T06:51:22.100Z,1.40
2019-03-29T06:51:58.432Z,1.40
2019-03-29T06:52:34.628Z,1.40
2019-03-29T06:53:11.054Z,1.50
2019-03-29T06:53:47.683Z,1.50
2019-03-29T06:54:23.830Z,1.60
2019-03-29T06:55:00.224Z,1.60
2019-03-29T06:55:36.702Z,1.60
2019-03-29T06:56:12.937Z,1.70
2019-03-29T06:56:49.351Z,1.80
2019-03-29T06:57:25.965Z,1.90
2019-03-29T06:58:02.459Z,2.00
2019-03-29T06:58:38.681Z,2.00
2019-03-29T06:59:14.968Z,2.10
2019-03-29T06:59:51.319Z,2.10
2019-03-29T07:00:27.729Z,2.20
2019-03-29T07:01:04.212Z,2.20
2019-03-29T07:01:40.647Z,2.30
2019-03-29T07:02:17.023Z,2.40
2019-03-29T07:02:53.225Z,2.50
2019-03-29T07:03:29.563Z,2.50
2019-03-29T07:04:05.922Z,2.60
2019-03-29T07:04:42.345Z,2.70
2019-03-29T07:05:18.519Z,2.80
2019-03-29T07:05:54.862Z,2.90
2019-03-29T07:06:31.003Z,2.90
2019-03-29T07:07:07.488Z,2.90
2019-03-29T07:07:44.656Z,3.00
2019-03-29T07:08:21.449Z,2.90
2019-03-29T07:08:57.941Z,3.00
2019-03-29T07:09:34.398Z,3.00
2019-03-29T07:10:10.658Z,3.00
2019-03-29T07:10:46.816Z,3.10
2019-03-29T07:11:23.067Z,3.20
2019-03-29T07:11:59.794Z,3.30
2019-03-29T07:12:36.414Z,3.30
2019-03-29T07:13:13.249Z,3.40
2019-03-29T07:13:57.518Z,3.40
2019-03-29T07:14:28.076Z,3.40
2019-03-29T07:15:04.361Z,3.40
2019-03-29T07:15:40.769Z,3.40
2019-03-29T07:16:17.270Z,3.50
2019-03-29T07:16:53.615Z,3.50
2019-03-29T07:17:30.012Z,3.50
2019-03-29T07:18:06.694Z,3.50
2019-03-29T07:18:42.818Z,3.40
2019-03-29T07:19:19.432Z,3.40
2019-03-29T07:19:55.610Z,3.40
2019-03-29T07:20:31.708Z,3.40
2019-03-29T07:21:20.745Z,3.40
2019-03-29T07:21:46.399Z,3.40
2019-03-29T07:22:22.764Z,3.40
2019-03-29T07:22:58.939Z,3.50
2019-03-29T07:23:35.434Z,3.50
2019-03-29T07:24:11.853Z,3.50
2019-03-29T07:24:48.109Z,3.50
2019-03-29T07:25:24.833Z,3.50
2019-03-29T07:26:00.972Z,3.50
2019-03-29T07:26:37.251Z,3.50
2019-03-29T07:27:13.534Z,3.50
2019-03-29T07:27:52.413Z,3.50
2019-03-29T07:28:27.514Z,3.50
2019-03-29T07:29:03.788Z,3.50
2019-03-29T07:29:40.059Z,3.50
2019-03-29T07:30:16.770Z,3.50
2019-03-29T07:30:52.934Z,3.50
2019-03-29T07:31:29.069Z,3.50
2019-03-29T07:32:05.224Z,3.60
2019-03-29T07:32:41.515Z,3.70
2019-03-29T07:33:17.860Z,3.70
2019-03-29T07:33:54.517Z,3.80
2019-03-29T07:34:30.808Z,3.80
2019-03-29T07:35:07.237Z,3.80
2019-03-29T07:35:43.238Z,3.90
2019-03-29T07:36:19.718Z,4.00
2019-03-29T07:36:56.137Z,4.10
2019-03-29T07:37:32.553Z,4.20
2019-03-29T07:38:09.012Z,4.20
2019-03-29T07:38:45.488Z,4.20
2019-03-29T07:39:21.644Z,4.30
2019-03-29T07:39:57.922Z,4.20
2019-03-29T07:40:34.240Z,4.30
2019-03-29T07:41:10.327Z,4.30
2019-03-29T07:41:46.565Z,4.40
2019-03-29T07:42:22.574Z,4.50
2019-03-29T07:42:58.780Z,4.60
2019-03-29T07:43:35.021Z,4.70
2019-03-29T07:44:11.291Z,4.80
2019-03-29T07:44:47.860Z,4.90
2019-03-29T07:45:24.085Z,5.00
2019-03-29T07:46:00.440Z,5.10
2019-03-29T07:46:36.645Z,5.10
2019-03-29T07:47:12.935Z,5.20
2019-03-29T07:47:49.764Z,5.20
2019-03-29T07:48:26.218Z,5.20
2019-03-29T07:49:02.627Z,5.20
2019-03-29T07:49:38.841Z,5.30
2019-03-29T07:50:18.791Z,5.40
2019-03-29T07:50:53.408Z,5.20
2019-03-29T07:51:29.771Z,5.20
2019-03-29T07:52:06.300Z,5.20
2019-03-29T07:52:42.687Z,5.20
2019-03-29T07:53:19.133Z,5.20